Time;durP1;ratioP1;P1;durP2;ratioP2;P2;SDS_P1;SDS_P2;PMS_P1;PMS_P2;Temp;Humidity;BMP_temperature;BMP_pressure;BME280_temperature;BME280_humidity;BME280_pressure;Samples;Min_cycle;Max_cycle;Signal;HPM_P1;HPM_P2
2023/09/05 00:01:15;;;;;;;4.03;2.73;;;;;;;15.47;100.00;101147.23;1380795;89;21260;-76
2023/09/05 00:03:42;;;;;;;5.67;3.00;;;;;;;15.45;100.00;101150.55;1380304;89;21306;-77
2023/09/05 00:06:10;;;;;;;5.23;2.97;;;;;;;15.39;100.00;101148.53;1380595;89;21261;-76
2023/09/05 00:08:38;;;;;;;4.60;2.80;;;;;;;15.39;100.00;101145.37;1385595;89;21267;-77
2023/09/05 00:11:05;;;;;;;4.43;2.80;;;;;;;15.40;100.00;101146.23;1379730;89;21415;-77
2023/09/05 00:13:32;;;;;;;5.53;3.13;;;;;;;15.35;100.00;101142.20;1361855;91;21327;-77
2023/09/05 00:16:00;;;;;;;3.70;2.97;;;;;;;15.37;100.00;101138.55;1386529;89;21275;-77
2023/09/05 00:18:27;;;;;;;4.63;3.17;;;;;;;15.35;100.00;101142.70;1536824;89;21172;-78
2023/09/05 00:20:56;;;;;;;4.07;2.47;;;;;;;15.34;100.00;101137.87;1378476;89;21514;-76
2023/09/05 00:23:24;;;;;;;4.83;3.30;;;;;;;15.34;100.00;101143.20;1380919;89;21261;-77
2023/09/05 00:25:51;;;;;;;5.23;2.80;;;;;;;15.32;100.00;101134.52;1384761;89;21223;-77
2023/09/05 00:28:19;;;;;;;4.83;3.17;;;;;;;15.32;100.00;101151.02;1380803;89;22052;-77
2023/09/05 00:30:46;;;;;;;3.67;2.37;;;;;;;15.29;100.00;101144.68;1380306;89;21336;-77
2023/09/05 00:33:14;;;;;;;3.40;2.70;;;;;;;15.29;100.00;101150.84;1391696;89;21356;-77
2023/09/05 00:35:41;;;;;;;5.17;3.80;;;;;;;15.30;100.00;101144.50;1380147;89;21246;-77
2023/09/05 00:38:08;;;;;;;4.93;3.07;;;;;;;15.29;100.00;101145.51;1379880;89;21231;-77
2023/09/05 00:40:36;;;;;;;6.57;2.60;;;;;;;15.30;100.00;101144.50;1380829;89;21312;-77
2023/09/05 00:43:03;;;;;;;4.40;2.93;;;;;;;15.23;100.00;101138.16;1380590;89;21235;-77
2023/09/05 00:45:30;;;;;;;3.50;2.83;;;;;;;15.21;100.00;101132.64;1380379;89;21475;-77
2023/09/05 00:48:00;;;;;;;5.40;2.80;;;;;;;15.18;100.00;101127.12;1380664;89;21379;-77
2023/09/05 00:50:27;;;;;;;3.97;2.93;;;;;;;15.15;100.00;101130.12;1384451;89;21467;-77
2023/09/05 00:52:54;;;;;;;4.03;2.53;;;;;;;15.18;100.00;101130.30;1380857;89;21261;-77
2023/09/05 00:55:22;;;;;;;8.57;3.37;;;;;;;15.15;100.00;101130.12;1361987;91;21268;-80
2023/09/05 00:57:49;;;;;;;5.50;3.13;;;;;;;15.14;100.00;101129.80;1380071;89;21260;-78
2023/09/05 01:00:17;;;;;;;7.40;3.13;;;;;;;15.15;100.00;101132.78;1380780;89;21378;-77
2023/09/05 01:02:45;;;;;;;9.07;3.10;;;;;;;15.13;100.00;101134.77;1379318;89;21260;-77
2023/09/05 01:05:13;;;;;;;3.93;3.00;;;;;;;15.13;100.00;101125.44;1380874;89;21261;-78
2023/09/05 01:08:09;;;;;;;7.57;3.00;;;;;;;15.11;100.00;101130.95;1384998;89;21282;-79
2023/09/05 01:10:46;;;;;;;5.80;2.73;;;;;;;15.09;100.00;101130.77;1526981;89;21403;-78
2023/09/05 01:13:15;;;;;;;7.57;3.20;;;;;;;15.07;100.00;101123.41;1535747;89;21252;-78
2023/09/05 01:15:43;;;;;;;6.45;3.05;;;;;;;15.05;100.00;101129.42;1365377;91;21267;-77
2023/09/05 01:18:10;;;;;;;4.70;2.80;;;;;;;14.98;100.00;101123.88;1362220;91;21433;-77
2023/09/05 01:21:23;;;;;;;3.70;2.70;;;;;;;14.91;100.00;101122.02;1380458;89;21452;-77
2023/09/05 01:24:17;;;;;;;4.17;2.60;;;;;;;14.81;100.00;101122.13;1385172;89;21289;-77
2023/09/05 01:26:44;;;;;;;5.50;2.23;;;;;;;14.75;100.00;101133.41;1536596;89;22045;-77
2023/09/05 01:29:15;;;;;;;4.07;3.30;;;;;;;14.70;100.00;101127.21;1379922;89;21267;-76
2023/09/05 01:31:43;;;;;;;14.77;4.07;;;;;;;14.66;100.00;101124.03;1365583;89;21297;-76
2023/09/05 01:34:10;;;;;;;4.27;3.07;;;;;;;14.69;100.00;101125.55;1415421;89;21386;-77
2023/09/05 01:36:37;;;;;;;5.83;3.10;;;;;;;14.62;100.00;101121.86;1362123;91;22148;-77
2023/09/05 01:39:05;;;;;;;4.43;2.93;;;;;;;14.64;100.00;101124.71;1380245;89;21361;-77
2023/09/05 01:41:32;;;;;;;6.67;2.87;;;;;;;14.61;100.00;101127.66;1380534;89;22399;-78
2023/09/05 01:44:00;;;;;;;6.63;3.20;;;;;;;14.61;100.00;101126.83;1380970;89;21394;-78
2023/09/05 01:46:27;;;;;;;7.23;3.07;;;;;;;14.61;100.00;101125.50;1379887;89;22052;-78
2023/09/05 01:48:54;;;;;;;6.13;3.30;;;;;;;14.62;100.00;101129.35;1387163;89;21349;-77
2023/09/05 01:51:21;;;;;;;5.13;3.30;;;;;;;14.63;100.00;101132.84;1380809;89;21246;-78
2023/09/05 01:53:48;;;;;;;5.70;3.60;;;;;;;14.63;100.00;101132.84;1380692;89;21408;-77
2023/09/05 01:56:15;;;;;;;5.57;3.10;;;;;;;14.65;100.00;101134.36;1380952;89;21245;-78
2023/09/05 01:58:42;;;;;;;4.97;3.40;;;;;;;14.65;100.00;101122.88;1380778;89;22089;-77
2023/09/05 02:01:10;;;;;;;6.37;3.13;;;;;;;14.65;100.00;101124.20;1380368;89;21326;-77
2023/09/05 02:03:38;;;;;;;5.60;2.87;;;;;;;14.66;100.00;101121.87;1380438;89;22200;-77
2023/09/05 02:06:05;;;;;;;5.07;3.20;;;;;;;14.64;100.00;101125.18;1385415;89;21334;-77
2023/09/05 02:08:36;;;;;;;5.73;3.17;;;;;;;14.61;100.00;101128.99;1380569;89;21245;-78
2023/09/05 02:11:04;;;;;;;6.27;2.90;;;;;;;14.61;100.00;101130.33;1377454;89;21282;-77
2023/09/05 02:13:31;;;;;;;7.50;3.70;;;;;;;14.59;100.00;101134.17;1380150;89;21260;-78
2023/09/05 02:15:58;;;;;;;5.73;3.60;;;;;;;14.61;100.00;101136.16;1380069;89;21208;-77
2023/09/05 02:18:25;;;;;;;7.50;3.00;;;;;;;14.60;100.00;101136.66;1380607;89;21253;-79
2023/09/05 02:21:01;;;;;;;9.60;3.53;;;;;;;14.58;100.00;101141.80;1380749;89;21467;-78
2023/09/05 02:23:28;;;;;;;6.97;3.47;;;;;;;14.52;100.00;101134.44;1530603;89;21231;-78
2023/09/05 02:26:00;;;;;;;5.13;3.37;;;;;;;14.47;100.00;101135.36;1380469;89;21319;-79
2023/09/05 02:28:28;;;;;;;7.77;3.47;;;;;;;14.45;100.00;101138.20;1378159;89;21328;-79
2023/09/05 02:30:57;;;;;;;5.53;3.30;;;;;;;14.42;100.00;101135.34;1385713;89;21283;-76
2023/09/05 02:33:24;;;;;;;4.30;3.47;;;;;;;14.40;100.00;101138.64;1384907;89;21341;-77
2023/09/05 02:35:51;;;;;;;5.13;3.40;;;;;;;14.39;100.00;101141.48;1509227;89;21404;-76
2023/09/05 02:38:18;;;;;;;5.23;3.50;;;;;;;14.38;100.00;101143.28;1380658;89;22290;-77
2023/09/05 02:40:46;;;;;;;3.77;2.73;;;;;;;14.36;100.00;101145.28;1380426;89;21518;-77
2023/09/05 02:43:14;;;;;;;6.13;3.47;;;;;;;14.30;100.00;101139.25;1379621;89;21255;-77
2023/09/05 02:45:52;;;;;;;8.67;3.63;;;;;;;14.26;100.00;101135.20;1379680;89;22169;-77
2023/09/05 02:48:19;;;;;;;5.27;3.70;;;;;;;14.25;100.00;101137.55;1531042;89;21282;-79
2023/09/05 02:50:46;;;;;;;10.70;4.20;;;;;;;14.21;100.00;101138.35;1380203;89;21194;-78
2023/09/05 02:53:13;;;;;;;4.50;3.27;;;;;;;14.22;100.00;101137.35;1380477;89;21415;-77
2023/09/05 02:55:44;;;;;;;8.40;3.20;;;;;;;14.23;100.00;101143.00;1386669;89;21282;-77
2023/09/05 02:58:11;;;;;;;4.47;2.67;;;;;;;14.23;100.00;101143.51;1380045;89;21423;-77
2023/09/05 03:00:38;;;;;;;5.27;3.37;;;;;;;14.24;100.00;101139.84;1380992;89;21422;-76
2023/09/05 03:03:05;;;;;;;4.30;3.23;;;;;;;14.23;100.00;101135.02;1380766;89;21260;-76
2023/09/05 03:05:32;;;;;;;5.97;3.73;;;;;;;14.23;100.00;101135.52;1380494;89;21312;-76
2023/09/05 03:07:59;;;;;;;5.10;3.87;;;;;;;14.17;100.00;101136.97;1380900;89;22207;-76
2023/09/05 03:10:27;;;;;;;4.73;3.30;;;;;;;14.12;100.00;101137.09;1362284;91;21313;-76
2023/09/05 03:12:54;;;;;;;7.47;4.10;;;;;;;14.09;100.00;101136.06;1386603;89;21300;-76
2023/09/05 03:15:23;;;;;;;5.43;3.40;;;;;;;14.05;100.00;101140.87;1380054;89;21408;-76
2023/09/05 03:17:50;;;;;;;6.83;4.33;;;;;;;14.02;100.00;101140.34;1378455;89;21407;-76
2023/09/05 03:20:18;;;;;;;7.93;3.80;;;;;;;13.98;100.00;101149.96;1386183;89;21371;-77
2023/09/05 03:22:45;;;;;;;4.70;3.40;;;;;;;13.97;100.00;101154.92;1536674;89;21179;-77
2023/09/05 03:25:12;;;;;;;5.80;3.50;;;;;;;13.97;100.00;101157.59;1380423;89;21245;-77
2023/09/05 03:27:39;;;;;;;4.10;3.50;;;;;;;13.98;100.00;101160.61;1380748;89;21252;-77
2023/09/05 03:30:08;;;;;;;5.60;2.93;;;;;;;13.98;100.00;101164.60;1380581;89;21201;-76
2023/09/05 03:32:35;;;;;;;6.00;3.67;;;;;;;13.96;100.00;101171.06;1379681;89;21260;-76
2023/09/05 03:35:02;;;;;;;7.87;3.60;;;;;;;13.92;100.00;101164.34;1511201;89;21304;-76
2023/09/05 03:37:30;;;;;;;12.43;3.47;;;;;;;13.89;100.00;101170.80;1381267;90;21238;-79
2023/09/05 03:39:57;;;;;;;4.73;2.83;;;;;;;13.87;100.00;101179.45;1517631;90;22023;-80
2023/09/05 03:42:24;;;;;;;5.80;3.30;;;;;;;13.88;100.00;101179.79;1525656;90;21283;-79
2023/09/05 03:44:51;;;;;;;8.30;3.40;;;;;;;13.90;100.00;101184.47;1375675;90;21299;-79
2023/09/05 03:47:21;;;;;;;8.40;3.57;;;;;;;13.89;100.00;101190.77;1375609;90;21467;-78
2023/09/05 03:49:48;;;;;;;5.30;3.13;;;;;;;13.89;100.00;101189.43;1372869;90;21290;-78
2023/09/05 03:52:15;;;;;;;5.50;3.03;;;;;;;13.86;100.00;101185.74;1375430;90;21246;-79
2023/09/05 03:54:43;;;;;;;5.60;2.77;;;;;;;13.84;100.00;101187.74;1381293;90;21282;-79
2023/09/05 03:57:10;;;;;;;5.50;3.60;;;;;;;13.84;100.00;101194.39;1375336;90;21389;-79
2023/09/05 03:59:37;;;;;;;5.00;3.23;;;;;;;13.85;100.00;101192.56;1375610;90;21305;-79
2023/09/05 04:02:05;;;;;;;9.47;4.07;;;;;;;13.83;100.00;101195.36;1386090;90;21327;-79
2023/09/05 04:04:32;;;;;;;4.07;2.97;;;;;;;13.85;100.00;101196.05;1375514;90;21450;-79
2023/09/05 04:06:59;;;;;;;7.97;3.90;;;;;;;13.87;100.00;101199.41;1375673;90;21322;-79
2023/09/05 04:09:26;;;;;;;6.77;3.53;;;;;;;13.83;100.00;101201.18;1508734;90;21363;-78
2023/09/05 04:11:53;;;;;;;6.00;3.07;;;;;;;13.79;100.00;101207.80;1375377;90;22229;-79
2023/09/05 04:14:20;;;;;;;8.23;3.50;;;;;;;13.76;100.00;101211.59;1375904;90;21312;-79
2023/09/05 04:16:48;;;;;;;6.73;3.03;;;;;;;13.74;100.00;101212.23;1375611;90;21246;-79
2023/09/05 04:19:15;;;;;;;4.37;3.37;;;;;;;13.75;100.00;101213.89;1381252;90;21224;-79
2023/09/05 04:21:42;;;;;;;10.50;4.53;;;;;;;13.79;100.00;101211.30;1375344;90;22221;-78
2023/09/05 04:24:09;;;;;;;4.97;3.10;;;;;;;13.82;100.00;101212.32;1375652;90;21394;-78
2023/09/05 04:26:37;;;;;;;8.17;3.40;;;;;;;13.86;100.00;101213.69;1526455;90;21276;-79
2023/09/05 04:29:05;;;;;;;8.43;3.20;;;;;;;13.90;100.00;101216.41;1374817;90;21322;-78
2023/09/05 04:31:32;;;;;;;4.97;3.10;;;;;;;13.94;100.00;101219.59;1375018;90;21393;-79
2023/09/05 04:34:00;;;;;;;8.43;3.17;;;;;;;13.97;100.00;101216.63;1369383;91;21355;-79
2023/09/05 04:36:27;;;;;;;7.83;3.77;;;;;;;13.98;100.00;101215.16;1535086;89;22059;-79
2023/09/05 04:38:54;;;;;;;5.97;3.50;;;;;;;13.97;100.00;101211.31;1384049;89;21342;-79
2023/09/05 04:41:21;;;;;;;5.37;3.53;;;;;;;13.96;100.00;101217.63;1384301;89;21466;-78
2023/09/05 04:43:48;;;;;;;5.37;2.97;;;;;;;13.88;100.00;101209.05;1384863;89;21276;-79
2023/09/05 04:46:15;;;;;;;4.93;3.40;;;;;;;13.85;100.00;101208.03;1367052;91;22096;-78
2023/09/05 04:48:43;;;;;;;4.70;3.37;;;;;;;13.84;100.00;101214.34;1366830;91;21268;-77
2023/09/05 04:51:10;;;;;;;5.37;3.37;;;;;;;13.84;100.00;101211.69;1383901;89;21424;-79
2023/09/05 04:53:37;;;;;;;5.33;3.33;;;;;;;13.88;100.00;101217.04;1390303;89;21341;-78
2023/09/05 04:56:04;;;;;;;4.20;2.93;;;;;;;13.92;100.00;101221.06;1384041;89;21263;-76
2023/09/05 04:58:33;;;;;;;5.30;2.97;;;;;;;13.94;100.00;101219.59;1384216;89;22221;-76
2023/09/05 05:01:04;;;;;;;7.80;3.67;;;;;;;13.96;100.00;101226.45;1382804;89;22390;-76
2023/09/05 05:03:33;;;;;;;3.90;2.97;;;;;;;14.02;100.00;101232.16;1535053;89;21334;-77
2023/09/05 05:06:02;;;;;;;8.87;3.53;;;;;;;14.07;100.00;101229.86;1383353;89;21215;-76
2023/09/05 05:08:30;;;;;;;7.47;3.87;;;;;;;14.12;100.00;101227.59;1381431;89;22237;-76
2023/09/05 05:10:57;;;;;;;6.37;2.87;;;;;;;14.17;100.00;101230.64;1389579;89;21238;-76
2023/09/05 05:13:24;;;;;;;4.50;2.67;;;;;;;14.27;100.00;101234.55;1541041;89;21208;-75
2023/09/05 05:15:51;;;;;;;6.87;3.20;;;;;;;14.34;100.00;101231.14;1384135;89;22133;-76
2023/09/05 05:18:19;;;;;;;4.33;3.10;;;;;;;14.44;100.00;101235.91;1383976;89;21238;-76
2023/09/05 05:20:46;;;;;;;7.73;2.80;;;;;;;14.58;100.00;101228.38;1371747;91;21327;-75
2023/09/05 05:23:14;;;;;;;7.60;3.13;;;;;;;14.69;100.00;101229.46;1383953;89;21245;-75
2023/09/05 05:25:41;;;;;;;7.73;3.63;;;;;;;14.79;100.00;101228.88;1384134;89;21260;-75
2023/09/05 05:28:08;;;;;;;8.13;3.43;;;;;;;14.89;100.00;101229.61;1383771;89;21516;-74
2023/09/05 05:30:36;;;;;;;6.47;3.57;;;;;;;14.98;100.00;101227.00;1383796;89;21238;-75
2023/09/05 05:33:04;;;;;;;8.13;3.70;;;;;;;15.09;100.00;101228.91;1383438;89;22289;-76
2023/09/05 05:35:33;;;;;;;6.87;4.00;;;;;;;15.19;100.00;101223.48;1496803;89;21312;-77
2023/09/05 05:38:00;;;;;;;4.57;3.17;;;;;;;15.23;100.00;101219.48;1380051;90;22059;-78
2023/09/05 05:40:27;;;;;;;5.17;3.83;;;;;;;15.38;100.00;101221.56;1375380;90;21453;-77
2023/09/05 05:42:54;;;;;;;5.53;3.77;;;;;;;15.48;100.00;101222.28;1361556;91;21238;-76
2023/09/05 05:45:22;;;;;;;8.60;2.93;;;;;;;15.59;100.00;101228.64;1375551;90;22111;-75
2023/09/05 05:47:49;;;;;;;5.57;3.17;;;;;;;15.71;100.00;101224.73;1381686;90;21253;-76
2023/09/05 05:50:16;;;;;;;6.33;3.70;;;;;;;15.84;100.00;101226.10;1375325;90;21239;-75
2023/09/05 05:52:45;;;;;;;6.53;3.50;;;;;;;15.96;100.00;101225.62;1376509;90;21353;-76
2023/09/05 05:55:12;;;;;;;3.97;3.17;;;;;;;16.08;100.00;101211.95;1374222;90;21320;-76
2023/09/05 05:57:39;;;;;;;5.03;3.37;;;;;;;16.23;100.00;101217.84;1375606;90;21209;-76
2023/09/05 06:00:07;;;;;;;6.47;3.30;;;;;;;16.33;100.00;101219.52;1375316;90;21216;-84
2023/09/05 06:02:35;;;;;;;6.63;3.77;;;;;;;16.46;100.00;101220.69;1374924;90;21268;-83
2023/09/05 06:05:02;;;;;;;7.03;3.13;;;;;;;16.63;100.00;101226.87;1375882;90;21194;-82
2023/09/05 06:07:29;;;;;;;8.17;3.10;;;;;;;16.81;100.00;101225.89;1375416;90;21334;-81
2023/09/05 06:09:56;;;;;;;5.63;3.60;;;;;;;16.98;100.00;101220.84;1361532;91;21276;-81
2023/09/05 06:12:24;;;;;;;4.43;3.30;;;;;;;17.12;100.00;101221.48;1375489;90;21253;-81
2023/09/05 06:14:54;;;;;;;4.75;3.45;;;;;;;17.25;100.00;101229.47;1378184;90;21313;-81
2023/09/05 06:17:21;;;;;;;6.53;3.73;;;;;;;17.39;100.00;101228.75;1530428;90;22038;-82
2023/09/05 06:19:48;;;;;;;5.90;3.30;;;;;;;17.49;100.00;101232.07;1375879;90;21208;-82
2023/09/05 06:22:15;;;;;;;8.17;3.30;;;;;;;17.62;100.00;101238.70;1375659;90;21275;-83
2023/09/05 06:24:42;;;;;;;7.10;3.70;;;;;;;17.77;100.00;101247.15;1375473;90;21306;-81
2023/09/05 06:27:10;;;;;;;6.07;3.30;;;;;;;17.89;100.00;101256.99;1381502;90;21304;-81
2023/09/05 06:29:37;;;;;;;7.03;3.40;;;;;;;17.98;100.00;101256.44;1374812;90;22222;-82
2023/09/05 06:32:05;;;;;;;6.17;3.57;;;;;;;18.08;100.00;101265.61;1375717;90;21246;-83
2023/09/05 06:34:32;;;;;;;6.85;3.87;;;;;;;18.15;100.00;101253.16;1381363;89;21528;-81
2023/09/05 06:37:01;;;;;;;5.85;3.83;;;;;;;18.24;100.00;101249.41;1530968;89;21412;-81
2023/09/05 06:39:28;;;;;;;7.92;4.22;;;;;;;18.37;100.00;101242.14;1379316;89;22074;-83
2023/09/05 06:41:55;;;;;;;10.43;3.67;;;;;;;18.55;100.00;101243.17;1380839;89;21294;-81
2023/09/05 06:44:22;;;;;;;9.68;4.00;;;;;;;18.58;100.00;101237.45;1380744;89;21253;-82
2023/09/05 06:46:49;;;;;;;4.67;3.12;;;;;;;18.66;100.00;101241.41;1526518;89;21371;-82
2023/09/05 06:49:17;;;;;;;5.47;3.77;;;;;;;18.76;100.00;101242.03;1536671;89;21269;-82
2023/09/05 06:51:44;;;;;;;6.10;4.00;;;;;;;18.84;100.00;101235.22;1380565;89;22178;-82
2023/09/05 06:54:11;;;;;;;5.17;3.40;;;;;;;18.98;100.00;101241.62;1362472;91;21275;-81
2023/09/05 06:56:38;;;;;;;6.53;3.05;;;;;;;19.12;100.00;101244.84;1380582;89;21252;-81
2023/09/05 06:59:17;;;;;;;10.63;3.95;;;;;;;19.22;100.00;101246.41;1367679;91;21572;-81
2023/09/05 07:01:36;;;;;;;7.62;4.08;;;;;;;19.39;100.00;101245.21;1377105;90;21490;-82
2023/09/05 07:04:03;;;;;;;4.37;3.42;;;;;;;19.55;100.00;101246.87;1378782;89;21444;-81
2023/09/05 07:06:30;;;;;;;5.17;3.87;;;;;;;19.74;100.00;101242.83;1380208;89;21253;-81
2023/09/05 07:08:57;;;;;;;8.05;5.10;;;;;;;19.90;100.00;101251.98;1386338;89;21237;-83
2023/09/05 07:11:24;;;;;;;4.20;3.25;;;;;;;19.98;100.00;101248.37;1536663;89;21254;-82
2023/09/05 07:13:51;;;;;;;5.25;3.77;;;;;;;20.10;100.00;101244.67;1347283;92;21216;-82
2023/09/05 07:16:19;;;;;;;6.28;3.67;;;;;;;20.22;100.00;101243.96;1380772;89;21415;-82
2023/09/05 07:18:46;;;;;;;8.70;3.42;;;;;;;20.30;100.00;101247.05;1380407;89;22233;-82
2023/09/05 07:21:13;;;;;;;8.08;3.02;;;;;;;20.45;100.00;101245.11;1386469;89;21321;-81
2023/09/05 07:23:40;;;;;;;4.80;3.25;;;;;;;20.57;100.00;101250.87;1380443;89;21403;-82
2023/09/05 07:26:08;;;;;;;7.97;3.65;;;;;;;20.57;100.00;101252.21;1362136;91;21260;-82
2023/09/05 07:28:35;;;;;;;5.87;3.17;;;;;;;20.63;100.00;101249.23;1380110;89;21315;-81
2023/09/05 07:31:02;;;;;;;9.63;3.72;;;;;;;20.69;100.00;101258.72;1380165;89;22096;-81
2023/09/05 07:33:30;;;;;;;9.58;3.30;;;;;;;20.79;100.00;101250.83;1386491;89;21304;-82
2023/09/05 07:35:58;;;;;;;4.75;2.90;;;;;;;20.94;100.00;101251.55;1368244;91;21342;-82
2023/09/05 07:38:25;;;;;;;10.28;3.35;;;;;;;21.10;100.00;101251.27;1381255;89;21635;-82
2023/09/05 07:41:06;;;;;;;8.83;3.60;;;;;;;21.12;100.00;101250.56;1343119;92;21549;-81
2023/09/05 07:43:33;;;;;;;5.80;3.10;;;;;;;21.19;100.00;101254.11;1538052;89;21364;-83
2023/09/05 07:46:01;;;;;;;12.00;4.60;;;;;;;21.38;100.00;101247.75;1363568;91;21320;-83
2023/09/05 07:48:28;;;;;;;5.03;3.37;;;;;;;21.55;100.00;101249.56;1380954;89;22125;-82
2023/09/05 07:51:04;;;;;;;4.55;3.20;;;;;;;21.74;100.00;101246.66;1381888;89;22248;-82
2023/09/05 07:53:37;;;;;;;5.47;3.45;;;;;;;21.93;100.00;101249.95;1385148;89;21349;-81
2023/09/05 07:56:04;;;;;;;9.90;3.25;;;;;;;21.99;100.00;101245.09;1538250;89;21178;-83
2023/09/05 07:58:32;;;;;;;7.08;3.75;;;;;;;22.09;100.00;101250.91;1381510;89;21253;-83
2023/09/05 08:00:59;;;;;;;4.25;2.70;;;;;;;22.26;100.00;101249.22;1381053;89;22486;-82
2023/09/05 08:03:27;;;;;;;5.08;2.90;;;;;;;22.21;100.00;101243.11;1381713;89;21246;-83
2023/09/05 08:05:54;;;;;;;9.75;3.70;;;;;;;22.33;100.00;101239.78;1363375;91;21201;-82
2023/09/05 08:08:22;;;;;;;5.37;2.62;;;;;;;22.44;100.00;101237.33;1381918;89;21474;-82
2023/09/05 08:10:49;;;;;;;5.47;3.42;;;;;;;22.46;100.00;101244.67;1381293;89;21245;-82
2023/09/05 08:13:16;;;;;;;6.85;3.55;;;;;;;22.59;100.00;101239.00;1381524;89;21383;-81
2023/09/05 08:15:44;;;;;;;6.97;3.98;;;;;;;22.79;100.00;101231.73;1353826;92;21297;-82
2023/09/05 08:18:12;;;;;;;8.85;3.30;;;;;;;22.99;100.00;101234.44;1380706;89;21326;-83
2023/09/05 08:20:42;;;;;;;5.22;3.02;;;;;;;23.12;100.00;101232.22;1381460;89;21436;-82
2023/09/05 08:23:11;;;;;;;17.27;4.17;;;;;;;23.28;100.00;101225.55;1537079;89;21292;-82
2023/09/05 08:25:39;;;;;;;6.20;3.80;;;;;;;23.40;100.00;101227.37;1379883;89;21395;-81
2023/09/05 08:28:07;;;;;;;6.92;3.02;;;;;;;23.47;100.00;101225.16;1381136;89;21320;-81
2023/09/05 08:30:34;;;;;;;6.45;3.30;;;;;;;23.49;100.00;101218.50;1381130;89;21179;-82
2023/09/05 08:33:02;;;;;;;9.20;3.75;;;;;;;23.49;100.00;101212.28;1381913;89;22096;-81
2023/09/05 08:35:30;;;;;;;4.97;2.92;;;;;;;23.61;100.00;101215.43;1384925;89;21349;-81
2023/09/05 08:38:02;;;;;;;5.85;2.72;;;;;;;23.73;100.00;101216.96;1525069;90;21427;-82
2023/09/05 08:40:27;;;;;;;5.03;3.10;;;;;;;23.70;98.46;101202.53;1505682;90;21475;-82
2023/09/05 08:42:54;;;;;;;4.95;2.65;;;;;;;23.73;99.21;101203.45;1361141;91;21409;-83
2023/09/05 08:45:23;;;;;;;6.62;2.65;;;;;;;23.85;100.00;101203.59;1375689;90;21261;-81
2023/09/05 08:47:52;;;;;;;2.87;2.58;;;;;;;23.92;98.21;101198.17;1373790;90;21408;-83
2023/09/05 08:50:19;;;;;;;6.20;2.67;;;;;;;23.95;99.70;101205.31;1374045;90;21254;-83
2023/09/05 08:52:48;;;;;;;7.00;2.65;;;;;;;24.09;98.16;101202.02;1375402;90;21463;-83
2023/09/05 08:55:16;;;;;;;4.33;3.30;;;;;;;24.22;99.08;101199.20;1374126;90;21401;-82
2023/09/05 08:57:49;;;;;;;5.70;2.80;;;;;;;24.30;96.38;101198.94;1374190;90;21268;-81
2023/09/05 09:00:18;;;;;;;5.95;2.65;;;;;;;24.20;93.85;101195.91;1513942;90;21342;-82
2023/09/05 09:02:45;;;;;;;4.22;2.70;;;;;;;24.35;95.94;101197.46;1374433;90;21247;-81
2023/09/05 09:05:13;;;;;;;4.25;2.83;;;;;;;24.39;95.09;101190.55;1525931;90;21490;-83
2023/09/05 09:07:41;;;;;;;9.35;2.50;;;;;;;24.57;97.05;101192.01;1374201;90;21253;-83
2023/09/05 09:10:20;;;;;;;4.65;2.42;;;;;;;24.66;95.93;101183.91;1381308;90;21320;-82
2023/09/05 09:12:59;;;;;;;5.53;2.62;;;;;;;24.85;96.50;101187.98;1513225;90;21165;-81
2023/09/05 09:15:27;;;;;;;5.87;2.83;;;;;;;24.79;85.42;101179.41;1383409;90;21334;-83
2023/09/05 09:17:54;;;;;;;8.48;3.37;;;;;;;24.83;85.91;101178.74;1374870;90;22068;-82
2023/09/05 09:20:23;;;;;;;6.28;2.67;;;;;;;25.00;86.84;101185.73;1375713;90;21282;-83
2023/09/05 09:22:51;;;;;;;13.88;2.90;;;;;;;25.10;86.12;101183.34;1373674;90;21454;-84
2023/09/05 09:25:20;;;;;;;5.72;3.02;;;;;;;25.24;86.49;101181.34;1374233;90;21319;-83
2023/09/05 09:27:53;;;;;;;3.33;2.60;;;;;;;25.30;84.34;101173.66;1359942;91;21269;-82
2023/09/05 09:30:23;;;;;;;3.22;2.42;;;;;;;25.37;82.08;101173.56;1512259;90;21298;-83
2023/09/05 09:32:52;;;;;;;3.83;2.60;;;;;;;25.41;73.28;101178.84;1377766;90;22231;-83
2023/09/05 09:35:21;;;;;;;5.80;3.10;;;;;;;25.28;70.19;101170.88;1520571;89;22104;-82
2023/09/05 09:37:49;;;;;;;6.83;2.67;;;;;;;25.31;72.39;101171.23;1358011;91;21430;-83
2023/09/05 09:40:17;;;;;;;4.75;2.62;;;;;;;25.43;72.85;101167.23;1379360;89;21420;-81
2023/09/05 09:42:48;;;;;;;3.60;2.45;;;;;;;25.51;72.27;101172.87;1379036;89;21201;-83
2023/09/05 09:45:18;;;;;;;6.90;3.05;;;;;;;25.54;66.90;101169.70;1381849;89;21357;-82
2023/09/05 09:47:49;;;;;;;4.55;2.77;;;;;;;25.71;69.12;101173.43;1377978;89;21312;-83
2023/09/05 09:50:19;;;;;;;8.28;2.75;;;;;;;25.81;68.12;101170.19;1376030;89;22112;-81
2023/09/05 09:52:48;;;;;;;;;;;;;;;25.88;66.20;101169.58;1379349;89;21453;-83
2023/09/05 09:55:16;;;;;;;6.10;2.77;;;;;;;25.54;50.31;101163.75;1365945;91;20232;-81
2023/09/05 09:57:56;;;;;;;10.20;2.83;;;;;;;25.60;51.37;101162.02;1379505;89;21253;-81
2023/09/05 10:00:24;;;;;;;6.92;2.33;;;;;;;25.65;49.75;101158.91;1376171;91;21388;-82
2023/09/05 10:02:54;;;;;;;11.85;3.17;;;;;;;25.66;49.63;101151.09;1384172;89;22213;-83
2023/09/05 10:05:26;;;;;;;4.42;2.70;;;;;;;25.81;50.77;101157.98;1383978;89;21497;-82
2023/09/05 10:07:54;;;;;;;5.78;3.15;;;;;;;25.93;50.31;101146.67;1377454;90;21319;-83
2023/09/05 10:10:21;;;;;;;3.50;2.75;;;;;;;26.01;50.15;101144.98;1359604;91;21238;-82
2023/09/05 10:12:51;;;;;;;3.45;2.60;;;;;;;26.06;48.65;101141.55;1389845;89;21468;-82
2023/09/05 10:15:20;;;;;;;4.95;2.77;;;;;;;26.17;49.58;101140.75;1536680;89;21195;-83
2023/09/05 10:17:49;;;;;;;8.38;2.90;;;;;;;26.27;50.10;101143.72;1359229;91;21261;-83
2023/09/05 10:20:19;;;;;;;5.67;2.50;;;;;;;26.29;49.30;101147.54;1360826;91;21350;-83
2023/09/05 10:22:46;;;;;;;3.77;2.65;;;;;;;26.28;47.81;101144.55;1378067;89;21320;-82
2023/09/05 10:25:14;;;;;;;6.30;2.98;;;;;;;26.34;47.36;101142.24;1387275;89;21335;-83
2023/09/05 10:27:42;;;;;;;2.92;2.25;;;;;;;26.43;47.92;101141.36;1495360;89;21268;-82
2023/09/05 10:30:10;;;;;;;3.80;2.70;;;;;;;26.52;48.09;101138.62;1380206;89;22162;-81
2023/09/05 10:32:44;;;;;;;5.37;2.65;;;;;;;26.55;46.57;101137.61;1379494;89;22282;-82
2023/09/05 10:35:17;;;;;;;4.75;3.22;;;;;;;26.47;45.79;101136.59;1530242;89;21534;-83
2023/09/05 10:38:01;;;;;;;2.55;1.95;;;;;;;26.47;46.36;101134.39;1536833;89;21482;-82
2023/09/05 10:40:37;;;;;;;8.00;2.40;;;;;;;26.57;46.91;101140.09;1519641;89;21409;-81
2023/09/05 10:43:09;;;;;;;3.52;2.40;;;;;;;26.60;46.58;101134.73;1536587;89;21270;-83
2023/09/05 10:45:38;;;;;;;7.65;3.00;;;;;;;26.62;47.64;101144.83;1375001;90;22170;-82
2023/09/05 10:48:16;;;;;;;3.83;2.35;;;;;;;26.68;46.72;101138.45;1360477;91;21492;-81
2023/09/05 10:51:11;;;;;;;2.25;2.05;;;;;;;26.71;47.18;101141.51;1536590;89;21194;-82
2023/09/05 10:53:43;;;;;;;3.22;2.35;;;;;;;26.81;45.93;101138.18;1378048;89;21423;-82
2023/09/05 10:56:43;;;;;;;5.62;2.33;;;;;;;26.68;44.76;101139.80;1530436;89;22059;-83
2023/09/05 10:59:29;;;;;;;3.92;2.20;;;;;;;26.71;45.21;101142.05;1513942;89;22267;-83
2023/09/05 11:02:01;;;;;;;12.18;3.33;;;;;;;26.75;44.56;101141.85;1376815;89;21325;-82
2023/09/05 11:04:29;;;;;;;5.83;2.50;;;;;;;26.90;45.73;101148.14;1536052;89;21290;-83
2023/09/05 11:07:03;;;;;;;4.78;2.65;;;;;;;26.85;44.10;101145.34;1382060;89;21416;-83
2023/09/05 11:09:44;;;;;;;3.15;2.02;;;;;;;26.93;45.06;101147.16;1536570;89;22096;-84
2023/09/05 11:12:12;;;;;;;3.10;2.40;;;;;;;27.01;43.91;101143.22;1377080;91;21304;-83
2023/09/05 11:14:39;;;;;;;4.53;2.50;;;;;;;27.04;43.85;101135.95;1380158;89;21268;-82
2023/09/05 11:17:15;;;;;;;3.02;2.17;;;;;;;26.93;41.79;101134.94;1367270;91;21297;-83
2023/09/05 11:19:47;;;;;;;2.92;1.87;;;;;;;26.83;42.88;101137.42;1536569;89;21179;-82
2023/09/05 11:22:21;;;;;;;3.98;2.37;;;;;;;26.93;43.85;101133.58;1404657;89;21349;-82
2023/09/05 11:24:58;;;;;;;5.50;2.02;;;;;;;26.99;42.68;101133.97;1537148;89;21307;-82
2023/09/05 11:27:29;;;;;;;4.95;2.05;;;;;;;26.97;42.17;101136.63;1379866;89;21304;-82